createdAt,value
2023-05-08T03:47:32.210Z,18.30
2023-05-08T03:50:00.317Z,18.40
2023-05-08T03:52:27.280Z,18.30
2023-05-08T03:54:54.228Z,18.40
2023-05-08T03:57:21.501Z,18.30
2023-05-08T03:59:54.348Z,18.40
2023-05-08T04:02:42.162Z,18.30
2023-05-08T04:05:21.445Z,18.30
2023-05-08T04:07:53.566Z,18.30
2023-05-08T04:10:20.441Z,18.20
2023-05-08T04:13:02.441Z,18.20
2023-05-08T04:15:30.350Z,18.20
2023-05-08T04:17:59.118Z,18.20
2023-05-08T04:20:27.106Z,18.20
2023-05-08T04:22:54.891Z,18.30
2023-05-08T04:25:21.954Z,18.20
2023-05-08T04:27:51.188Z,18.30
2023-05-08T04:30:18.388Z,18.40
2023-05-08T04:32:46.759Z,18.20
2023-05-08T04:35:14.295Z,18.30
2023-05-08T04:37:42.854Z,18.20
2023-05-08T04:40:10.642Z,18.30
2023-05-08T04:42:39.652Z,18.30
2023-05-08T04:45:06.813Z,18.40
2023-05-08T04:47:33.877Z,18.30
2023-05-08T04:50:02.831Z,18.40
2023-05-08T04:52:30.311Z,18.40
2023-05-08T04:54:57.285Z,18.50
2023-05-08T04:57:24.234Z,18.40
2023-05-08T04:59:51.359Z,18.50
2023-05-08T05:02:18.495Z,18.30
2023-05-08T05:04:45.475Z,18.40
2023-05-08T05:07:12.397Z,18.40
2023-05-08T05:09:39.371Z,18.40
2023-05-08T05:12:07.185Z,18.40
2023-05-08T05:14:34.370Z,18.40
2023-05-08T05:17:01.405Z,18.40
2023-05-08T05:19:28.313Z,18.50
2023-05-08T05:21:55.221Z,18.40
2023-05-08T05:24:22.144Z,18.40
2023-05-08T05:26:49.068Z,18.40
2023-05-08T05:29:16.028Z,18.50
2023-05-08T05:31:43.060Z,18.40
2023-05-08T05:34:10.053Z,18.40
2023-05-08T05:36:37.241Z,18.40
2023-05-08T05:39:04.129Z,18.50
2023-05-08T05:41:31.122Z,18.50
2023-05-08T05:43:58.120Z,18.50
2023-05-08T05:46:31.139Z,18.50
2023-05-08T05:48:58.646Z,18.40
2023-05-08T05:51:25.721Z,18.40
2023-05-08T05:53:52.611Z,18.50
2023-05-08T05:56:19.536Z,18.50
2023-05-08T05:58:46.455Z,18.50
2023-05-08T06:01:13.486Z,18.40
2023-05-08T06:03:40.562Z,18.40
2023-05-08T06:06:07.768Z,18.40
2023-05-08T06:08:35.095Z,18.40
2023-05-08T06:11:02.299Z,18.30
2023-05-08T06:13:29.333Z,18.50
2023-05-08T06:15:59.045Z,18.40
2023-05-08T06:18:26.139Z,18.40
2023-05-08T06:20:57.073Z,18.50
2023-05-08T06:23:24.161Z,18.50
2023-05-08T06:25:51.186Z,18.50
2023-05-08T06:28:18.811Z,18.50
2023-05-08T06:30:45.900Z,18.60
2023-05-08T06:33:12.917Z,18.60
2023-05-08T06:35:39.807Z,18.60
2023-05-08T06:38:06.752Z,18.60
2023-05-08T06:40:33.713Z,18.60
2023-05-08T06:43:00.689Z,18.60
2023-05-08T06:45:27.685Z,18.60
2023-05-08T06:47:54.761Z,18.70
2023-05-08T06:50:21.774Z,18.70
2023-05-08T06:52:48.712Z,18.70
2023-05-08T06:55:15.773Z,18.80
2023-05-08T06:57:42.906Z,18.80
2023-05-08T07:00:10.119Z,18.80
2023-05-08T07:02:37.157Z,18.80
2023-05-08T07:05:04.363Z,18.90
2023-05-08T07:07:31.476Z,18.90
2023-05-08T07:09:58.442Z,18.90
2023-05-08T07:12:25.452Z,18.90
2023-05-08T07:14:52.382Z,18.90
2023-05-08T07:17:19.480Z,18.90
2023-05-08T07:19:50.030Z,18.90
2023-05-08T07:22:17.063Z,19.00
2023-05-08T07:24:43.973Z,18.90
2023-05-08T07:27:10.879Z,19.00
2023-05-08T07:29:37.799Z,18.90
2023-05-08T07:32:07.079Z,19.00
2023-05-08T07:34:34.923Z,19.00
2023-05-08T07:37:02.620Z,18.90
2023-05-08T07:39:29.558Z,19.00
2023-05-08T07:41:56.485Z,19.00
2023-05-08T07:44:23.453Z,19.00
2023-05-08T07:46:50.968Z,19.00
2023-05-08T07:49:17.955Z,19.00
2023-05-08T07:51:44.875Z,19.10
2023-05-08T07:54:11.821Z,19.00
2023-05-08T07:56:38.762Z,19.10
2023-05-08T07:59:05.696Z,19.10
2023-05-08T08:01:32.635Z,19.20
2023-05-08T08:03:59.681Z,19.20
2023-05-08T08:06:26.658Z,19.30
2023-05-08T08:08:53.562Z,19.30
2023-05-08T08:11:20.560Z,19.30
2023-05-08T08:13:47.504Z,19.30
2023-05-08T08:16:14.472Z,19.30
2023-05-08T08:18:41.463Z,19.30
2023-05-08T08:21:08.416Z,19.30
2023-05-08T08:23:35.450Z,19.40
2023-05-08T08:26:02.349Z,19.40
2023-05-08T08:28:29.356Z,19.40
2023-05-08T08:30:56.446Z,19.40
2023-05-08T08:33:23.520Z,19.40
2023-05-08T08:35:50.426Z,19.50
2023-05-08T08:38:17.388Z,19.50
2023-05-08T08:40:44.294Z,19.60
2023-05-08T08:43:11.277Z,19.60
2023-05-08T08:45:38.191Z,19.60
2023-05-08T08:48:05.367Z,19.70
2023-05-08T08:50:33.022Z,19.70
2023-05-08T08:53:02.732Z,19.80
2023-05-08T08:55:29.885Z,19.80
2023-05-08T08:58:03.031Z,19.80
2023-05-08T09:00:31.978Z,19.90
2023-05-08T09:02:59.436Z,19.90
2023-05-08T09:05:26.630Z,19.90
2023-05-08T09:07:56.547Z,19.90
2023-05-08T09:10:24.428Z,20.00
2023-05-08T09:12:51.601Z,20.00
2023-05-08T09:15:18.625Z,20.10
2023-05-08T09:17:45.734Z,20.10
2023-05-08T09:20:14.529Z,20.10
2023-05-08T09:22:42.394Z,20.20
2023-05-08T09:25:09.630Z,20.20
2023-05-08T09:27:36.898Z,20.20
2023-05-08T09:30:04.350Z,20.20
2023-05-08T09:32:32.037Z,20.30
2023-05-08T09:34:59.259Z,20.30
2023-05-08T09:37:26.862Z,20.40
2023-05-08T09:39:54.248Z,20.50
2023-05-08T09:42:21.349Z,20.50
2023-05-08T09:44:52.016Z,20.60
2023-05-08T09:47:20.354Z,20.50
2023-05-08T09:50:00.832Z,20.50
2023-05-08T09:52:28.347Z,20.50
2023-05-08T09:55:02.638Z,20.50
2023-05-08T09:57:30.331Z,20.50
2023-05-08T10:00:11.931Z,20.70
2023-05-08T10:02:41.001Z,20.50
2023-05-08T10:05:27.405Z,20.50
2023-05-08T10:07:54.484Z,20.60
2023-05-08T10:10:28.152Z,20.50
2023-05-08T10:12:55.851Z,20.50
2023-05-08T10:15:23.733Z,20.50
2023-05-08T10:17:54.251Z,20.50
2023-05-08T10:20:22.345Z,20.50
2023-05-08T10:22:49.398Z,20.60
2023-05-08T10:25:17.138Z,20.60
2023-05-08T10:27:55.243Z,20.60
2023-05-08T10:30:24.154Z,20.60
2023-05-08T10:32:54.022Z,20.60
2023-05-08T10:35:21.389Z,20.60
2023-05-08T10:37:49.167Z,20.60
2023-05-08T10:40:16.396Z,20.60
2023-05-08T10:42:43.847Z,20.60
2023-05-08T10:45:11.394Z,20.60
2023-05-08T10:47:47.858Z,20.70
2023-05-08T10:50:28.859Z,20.70
2023-05-08T10:53:05.548Z,20.80
2023-05-08T10:55:33.583Z,20.80
2023-05-08T10:58:03.514Z,20.90
2023-05-08T11:00:53.186Z,20.90
2023-05-08T11:03:31.316Z,20.90
2023-05-08T11:05:59.880Z,21.00
2023-05-08T11:08:27.931Z,21.00
2023-05-08T11:11:05.072Z,21.10
2023-05-08T11:13:34.838Z,21.10
2023-05-08T11:16:02.465Z,21.10
2023-05-08T11:18:41.938Z,21.20
2023-05-08T11:21:21.112Z,21.30
2023-05-08T11:23:55.916Z,21.40
2023-05-08T11:26:37.910Z,21.40
2023-05-08T11:29:15.876Z,21.40
2023-05-08T11:31:52.609Z,21.40
2023-05-08T11:34:38.199Z,21.40
2023-05-08T11:37:08.819Z,21.50
2023-05-08T11:39:35.782Z,21.50
2023-05-08T11:42:21.387Z,21.70
2023-05-08T11:44:48.339Z,21.40
2023-05-08T11:47:18.551Z,21.40
2023-05-08T11:49:45.731Z,21.40
2023-05-08T11:52:12.747Z,21.20
2023-05-08T11:54:39.734Z,21.20
2023-05-08T11:57:06.805Z,20.80
2023-05-08T11:59:37.518Z,20.60
2023-05-08T12:02:08.959Z,20.40
2023-05-08T12:04:43.447Z,20.20
2023-05-08T12:07:10.495Z,19.90
2023-05-08T12:09:38.232Z,19.70
2023-05-08T12:12:05.360Z,19.30
2023-05-08T12:14:34.447Z,19.20
2023-05-08T12:17:02.354Z,19.20
2023-05-08T12:19:29.369Z,19.20
2023-05-08T12:21:56.973Z,19.10
2023-05-08T12:24:25.987Z,19.00
2023-05-08T12:26:56.255Z,19.00
2023-05-08T12:29:24.139Z,18.90
2023-05-08T12:31:52.632Z,19.00
2023-05-08T12:34:20.244Z,19.00
2023-05-08T12:36:47.264Z,18.90
2023-05-08T12:39:15.336Z,19.00
2023-05-08T12:41:46.193Z,18.90
2023-05-08T12:44:19.676Z,18.90
2023-05-08T12:46:47.585Z,18.90
2023-05-08T12:49:14.600Z,19.00
2023-05-08T12:51:45.682Z,19.00
2023-05-08T12:54:12.629Z,19.20
2023-05-08T12:56:43.650Z,19.00
2023-05-08T12:59:10.585Z,19.00
2023-05-08T13:01:37.682Z,19.10
2023-05-08T13:04:07.503Z,19.00
2023-05-08T13:06:34.510Z,18.90
2023-05-08T13:09:01.624Z,18.90
2023-05-08T13:11:30.326Z,18.90
2023-05-08T13:13:57.300Z,18.90
2023-05-08T13:16:24.311Z,18.90
2023-05-08T13:18:51.190Z,18.90
2023-05-08T13:21:18.132Z,18.90
2023-05-08T13:23:45.115Z,19.00
2023-05-08T13:26:12.067Z,18.90
2023-05-08T13:28:39.022Z,18.80
2023-05-08T13:31:05.946Z,18.80
2023-05-08T13:33:32.897Z,19.00
2023-05-08T13:35:59.849Z,18.80
2023-05-08T13:38:26.872Z,18.80
2023-05-08T13:40:53.749Z,18.90
2023-05-08T13:43:20.726Z,18.80
2023-05-08T13:45:47.765Z,18.90
2023-05-08T13:48:14.835Z,18.90
2023-05-08T13:50:41.792Z,19.00
2023-05-08T13:53:08.735Z,19.00
2023-05-08T13:55:36.487Z,19.10
2023-05-08T13:58:03.498Z,19.20
2023-05-08T14:00:30.636Z,19.20
2023-05-08T14:02:57.644Z,19.30
2023-05-08T14:05:24.716Z,19.30
2023-05-08T14:07:51.749Z,19.30
2023-05-08T14:10:18.691Z,19.30
2023-05-08T14:12:46.552Z,19.30
2023-05-08T14:15:13.843Z,19.40
2023-05-08T14:17:42.286Z,19.50
2023-05-08T14:20:11.700Z,19.40
2023-05-08T14:22:39.218Z,19.40
2023-05-08T14:25:06.851Z,19.40
2023-05-08T14:27:33.768Z,19.40
2023-05-08T14:30:01.086Z,19.40
2023-05-08T14:32:28.217Z,19.50
2023-05-08T14:34:55.493Z,19.50
2023-05-08T14:37:22.508Z,19.50
2023-05-08T14:39:50.364Z,19.50
2023-05-08T14:42:23.515Z,19.60
2023-05-08T14:44:51.046Z,19.60
2023-05-08T14:47:17.984Z,19.70
2023-05-08T14:49:45.005Z,19.70
2023-05-08T14:52:11.990Z,19.80
2023-05-08T14:54:39.213Z,19.80
2023-05-08T14:57:06.397Z,19.90
2023-05-08T14:59:33.292Z,19.90
2023-05-08T15:02:00.666Z,20.00
2023-05-08T15:04:27.676Z,20.00
2023-05-08T15:06:54.732Z,20.00
2023-05-08T15:09:21.634Z,20.10
2023-05-08T15:11:48.607Z,20.10
2023-05-08T15:14:15.525Z,20.20
2023-05-08T15:16:42.642Z,20.20
2023-05-08T15:19:09.857Z,20.20
2023-05-08T15:21:36.789Z,20.20
2023-05-08T15:24:03.755Z,20.20
2023-05-08T15:26:31.134Z,20.30
2023-05-08T15:28:58.044Z,20.30
2023-05-08T15:31:25.069Z,20.30
2023-05-08T15:33:52.054Z,20.30
2023-05-08T15:36:19.120Z,20.40
2023-05-08T15:38:46.173Z,20.40
2023-05-08T15:41:15.380Z,20.40
2023-05-08T15:43:43.240Z,20.40
2023-05-08T15:46:10.788Z,20.40
2023-05-08T15:48:37.822Z,20.40
2023-05-08T15:51:04.823Z,20.40
2023-05-08T15:53:32.870Z,20.40
2023-05-08T15:55:59.801Z,20.40
2023-05-08T15:58:27.615Z,20.40
2023-05-08T16:00:54.699Z,20.40
2023-05-08T16:03:21.863Z,20.40
2023-05-08T16:05:49.084Z,20.40
2023-05-08T16:08:16.016Z,20.40
2023-05-08T16:10:42.996Z,20.50
2023-05-08T16:13:10.021Z,20.40
2023-05-08T16:15:37.117Z,20.60
2023-05-08T16:18:04.334Z,20.40
2023-05-08T16:20:33.378Z,20.40
2023-05-08T16:23:01.253Z,20.40
2023-05-08T16:25:28.209Z,20.30
2023-05-08T16:27:55.161Z,20.30
2023-05-08T16:30:22.038Z,20.30
2023-05-08T16:32:49.082Z,20.30
2023-05-08T16:35:16.427Z,20.30
2023-05-08T16:37:43.673Z,20.30
2023-05-08T16:40:11.163Z,20.30
2023-05-08T16:42:38.131Z,20.20
2023-05-08T16:45:05.340Z,20.20
2023-05-08T16:47:32.715Z,20.20
2023-05-08T16:50:00.088Z,20.20
2023-05-08T16:52:27.264Z,20.20
2023-05-08T16:54:54.231Z,20.20
2023-05-08T16:57:21.173Z,20.30
2023-05-08T16:59:48.249Z,20.20
2023-05-08T17:02:19.051Z,20.20
2023-05-08T17:04:49.100Z,20.20
2023-05-08T17:07:17.027Z,20.10
2023-05-08T17:09:44.543Z,20.20
2023-05-08T17:12:12.052Z,20.20
2023-05-08T17:14:40.348Z,20.10
2023-05-08T17:17:07.598Z,20.10
2023-05-08T17:19:34.786Z,20.10
2023-05-08T17:22:02.037Z,20.00
2023-05-08T17:24:32.585Z,20.00
2023-05-08T17:26:59.737Z,20.00
2023-05-08T17:29:26.749Z,20.00
2023-05-08T17:31:53.670Z,20.00
2023-05-08T17:34:20.998Z,20.00
2023-05-08T17:36:48.070Z,20.00
2023-05-08T17:39:15.001Z,19.90
2023-05-08T17:41:41.899Z,19.90
2023-05-08T17:44:08.838Z,20.00
2023-05-08T17:46:36.865Z,19.90
2023-05-08T17:49:03.841Z,19.90
2023-05-08T17:51:31.366Z,19.90
2023-05-08T17:53:58.312Z,19.90
2023-05-08T17:56:25.741Z,19.90
2023-05-08T17:58:53.017Z,19.80
2023-05-08T18:01:20.293Z,19.80
2023-05-08T18:03:50.591Z,19.80
2023-05-08T18:06:17.832Z,19.70
2023-05-08T18:08:45.125Z,19.70
2023-05-08T18:11:22.544Z,19.70
2023-05-08T18:13:49.840Z,19.60
2023-05-08T18:16:17.773Z,19.60
2023-05-08T18:18:45.057Z,19.60
2023-05-08T18:21:12.217Z,19.60
2023-05-08T18:23:39.267Z,19.60
2023-05-08T18:26:06.373Z,19.60
2023-05-08T18:28:33.504Z,19.60
2023-05-08T18:31:00.506Z,19.50
2023-05-08T18:33:27.481Z,19.50
2023-05-08T18:35:55.650Z,19.50
2023-05-08T18:38:22.675Z,19.60
2023-05-08T18:40:49.667Z,19.40
2023-05-08T18:43:16.602Z,19.40
2023-05-08T18:45:43.536Z,19.40
2023-05-08T18:48:11.239Z,19.40
2023-05-08T18:50:38.280Z,19.40
2023-05-08T18:53:06.480Z,19.40
2023-05-08T18:55:33.433Z,19.30
2023-05-08T18:58:00.421Z,19.40
2023-05-08T19:00:27.380Z,19.30
2023-05-08T19:02:54.441Z,19.30
2023-05-08T19:05:21.869Z,19.30
2023-05-08T19:07:48.859Z,19.20
2023-05-08T19:10:16.097Z,19.20
2023-05-08T19:12:44.282Z,19.20
2023-05-08T19:15:13.417Z,19.20
2023-05-08T19:17:41.228Z,19.20
2023-05-08T19:20:08.480Z,19.40
2023-05-08T19:22:36.068Z,19.20
2023-05-08T19:25:03.323Z,19.20
2023-05-08T19:27:31.949Z,19.20
2023-05-08T19:29:59.012Z,19.20
2023-05-08T19:32:26.144Z,19.20
2023-05-08T19:34:55.278Z,19.10
2023-05-08T19:37:22.172Z,19.10
2023-05-08T19:39:49.080Z,19.10
2023-05-08T19:42:16.002Z,19.30
2023-05-08T19:44:42.994Z,19.10
2023-05-08T19:47:09.941Z,19.10
2023-05-08T19:49:36.873Z,19.30
2023-05-08T19:52:03.947Z,19.10
2023-05-08T19:54:30.837Z,19.10
2023-05-08T19:56:57.845Z,19.30
2023-05-08T19:59:24.881Z,19.00
2023-05-08T20:01:51.983Z,19.00
2023-05-08T20:04:18.996Z,19.00
2023-05-08T20:06:46.010Z,19.00
2023-05-08T20:09:12.921Z,19.20
2023-05-08T20:11:39.915Z,18.90
2023-05-08T20:14:06.823Z,18.90
2023-05-08T20:16:33.857Z,18.80
2023-05-08T20:19:01.688Z,18.80
2023-05-08T20:21:33.774Z,18.90
2023-05-08T20:24:00.838Z,18.70
2023-05-08T20:26:28.308Z,18.70
2023-05-08T20:28:55.756Z,18.90
2023-05-08T20:31:22.786Z,18.80
2023-05-08T20:33:49.727Z,18.80
2023-05-08T20:36:16.668Z,18.80
2023-05-08T20:38:43.602Z,18.70
2023-05-08T20:41:10.489Z,18.80
2023-05-08T20:43:37.370Z,18.80
2023-05-08T20:46:04.356Z,18.70
2023-05-08T20:48:31.392Z,18.80
2023-05-08T20:50:58.344Z,18.70
2023-05-08T20:53:25.412Z,18.80
2023-05-08T20:55:59.243Z,18.90
2023-05-08T20:58:26.156Z,18.70
2023-05-08T21:00:53.147Z,18.70
2023-05-08T21:03:20.077Z,18.70
2023-05-08T21:05:47.004Z,18.70
2023-05-08T21:08:13.929Z,18.70
2023-05-08T21:10:40.984Z,18.60
2023-05-08T21:13:07.943Z,18.60
2023-05-08T21:15:34.978Z,18.60
2023-05-08T21:18:02.092Z,18.60
2023-05-08T21:20:29.030Z,18.60
2023-05-08T21:22:56.053Z,18.50
2023-05-08T21:25:23.054Z,18.50
2023-05-08T21:27:50.012Z,18.50
2023-05-08T21:30:16.958Z,18.50
2023-05-08T21:32:44.549Z,18.50
2023-05-08T21:35:11.786Z,18.50
2023-05-08T21:37:39.043Z,18.50
2023-05-08T21:40:06.361Z,18.50
2023-05-08T21:42:33.351Z,18.40
2023-05-08T21:45:00.324Z,18.40
2023-05-08T21:47:28.105Z,18.40
2023-05-08T21:49:55.405Z,18.40
2023-05-08T21:52:22.471Z,18.30
2023-05-08T21:54:49.858Z,18.30
2023-05-08T21:57:16.833Z,18.30
2023-05-08T21:59:43.876Z,18.30
2023-05-08T22:02:10.915Z,18.30
2023-05-08T22:04:38.087Z,18.40
2023-05-08T22:07:05.050Z,18.30
2023-05-08T22:09:31.969Z,18.30
2023-05-08T22:11:58.872Z,18.20
2023-05-08T22:14:25.819Z,18.20
2023-05-08T22:16:52.807Z,18.20
2023-05-08T22:19:19.786Z,18.30
2023-05-08T22:21:46.772Z,18.20
2023-05-08T22:24:15.132Z,18.10
2023-05-08T22:26:42.134Z,18.10
2023-05-08T22:29:09.013Z,18.10
2023-05-08T22:31:36.009Z,18.10
2023-05-08T22:34:02.953Z,18.40
2023-05-08T22:36:29.848Z,18.10
2023-05-08T22:38:56.826Z,18.20
2023-05-08T22:41:23.853Z,18.10
2023-05-08T22:43:50.768Z,18.10
2023-05-08T22:46:18.374Z,18.10
2023-05-08T22:48:45.711Z,18.00
2023-05-08T22:51:13.231Z,18.00
2023-05-08T22:53:40.131Z,18.00
2023-05-08T22:56:07.130Z,18.10
2023-05-08T22:58:34.087Z,18.10
